sensor_id;sensor_type;location;lat;lon;timestamp;temperature;humidity
38263;DHT22;24054;50.128;19.730;2022-08-01T00:02:12;24.70;69.60
38263;DHT22;24054;50.128;19.730;2022-08-01T00:04:39;24.70;69.50
38263;DHT22;24054;50.128;19.730;2022-08-01T00:07:05;24.70;69.50
38263;DHT22;24054;50.128;19.730;2022-08-01T00:09:32;24.70;69.50
38263;DHT22;24054;50.128;19.730;2022-08-01T00:11:59;24.70;69.50
38263;DHT22;24054;50.128;19.730;2022-08-01T00:14:27;24.70;69.50
38263;DHT22;24054;50.128;19.730;2022-08-01T00:16:54;24.70;69.40
38263;DHT22;24054;50.128;19.730;2022-08-01T00:19:21;24.70;69.40
38263;DHT22;24054;50.128;19.730;2022-08-01T00:21:47;24.70;69.40
38263;DHT22;24054;50.128;19.730;2022-08-01T00:24:14;24.70;69.30
38263;DHT22;24054;50.128;19.730;2022-08-01T00:26:41;24.70;69.30
38263;DHT22;24054;50.128;19.730;2022-08-01T00:29:08;24.70;69.30
38263;DHT22;24054;50.128;19.730;2022-08-01T00:31:36;24.80;69.30
38263;DHT22;24054;50.128;19.730;2022-08-01T00:34:02;24.70;69.20
38263;DHT22;24054;50.128;19.730;2022-08-01T00:36:29;24.70;69.20
38263;DHT22;24054;50.128;19.730;2022-08-01T00:38:56;24.70;69.20
38263;DHT22;24054;50.128;19.730;2022-08-01T00:41:23;24.70;69.20
38263;DHT22;24054;50.128;19.730;2022-08-01T00:43:50;24.70;69.20
38263;DHT22;24054;50.128;19.730;2022-08-01T00:46:17;24.70;69.20
38263;DHT22;24054;50.128;19.730;2022-08-01T00:48:45;24.70;69.10
38263;DHT22;24054;50.128;19.730;2022-08-01T00:51:12;24.70;69.20
38263;DHT22;24054;50.128;19.730;2022-08-01T00:53:39;24.70;69.20
38263;DHT22;24054;50.128;19.730;2022-08-01T00:56:06;24.70;69.10
38263;DHT22;24054;50.128;19.730;2022-08-01T00:58:33;24.70;69.20
38263;DHT22;24054;50.128;19.730;2022-08-01T01:01:00;24.70;69.10
38263;DHT22;24054;50.128;19.730;2022-08-01T01:03:27;24.70;69.10
38263;DHT22;24054;50.128;19.730;2022-08-01T01:05:58;24.70;69.20
38263;DHT22;24054;50.128;19.730;2022-08-01T01:08:29;24.70;69.10
38263;DHT22;24054;50.128;19.730;2022-08-01T01:10:57;24.70;69.10
38263;DHT22;24054;50.128;19.730;2022-08-01T01:13:30;24.70;69.00
38263;DHT22;24054;50.128;19.730;2022-08-01T01:15:58;24.70;69.10
38263;DHT22;24054;50.128;19.730;2022-08-01T01:18:28;24.70;69.10
38263;DHT22;24054;50.128;19.730;2022-08-01T01:21:00;24.70;69.10
38263;DHT22;24054;50.128;19.730;2022-08-01T01:23:34;24.70;69.10
38263;DHT22;24054;50.128;19.730;2022-08-01T01:26:17;24.70;69.10
38263;DHT22;24054;50.128;19.730;2022-08-01T01:28:56;24.70;69.70
38263;DHT22;24054;50.128;19.730;2022-08-01T01:31:23;24.70;69.10
38263;DHT22;24054;50.128;19.730;2022-08-01T01:33:51;24.70;69.10
38263;DHT22;24054;50.128;19.730;2022-08-01T01:36:18;24.60;69.30
38263;DHT22;24054;50.128;19.730;2022-08-01T01:38:45;24.70;69.10
38263;DHT22;24054;50.128;19.730;2022-08-01T01:41:14;24.70;69.10
38263;DHT22;24054;50.128;19.730;2022-08-01T01:43:42;24.60;69.10
38263;DHT22;24054;50.128;19.730;2022-08-01T01:46:10;24.70;69.70
38263;DHT22;24054;50.128;19.730;2022-08-01T01:48:38;24.60;69.10
38263;DHT22;24054;50.128;19.730;2022-08-01T01:51:05;24.70;69.10
38263;DHT22;24054;50.128;19.730;2022-08-01T01:53:33;24.70;69.10
38263;DHT22;24054;50.128;19.730;2022-08-01T01:56:00;24.70;69.10
38263;DHT22;24054;50.128;19.730;2022-08-01T01:58:28;24.70;69.10
38263;DHT22;24054;50.128;19.730;2022-08-01T02:00:56;24.60;69.00
38263;DHT22;24054;50.128;19.730;2022-08-01T02:03:25;24.70;69.10
38263;DHT22;24054;50.128;19.730;2022-08-01T02:05:53;24.70;69.10
38263;DHT22;24054;50.128;19.730;2022-08-01T02:08:20;24.70;69.10
38263;DHT22;24054;50.128;19.730;2022-08-01T02:10:48;24.60;69.10
38263;DHT22;24054;50.128;19.730;2022-08-01T02:13:30;24.60;69.00
38263;DHT22;24054;50.128;19.730;2022-08-01T02:15:58;24.60;69.00
38263;DHT22;24054;50.128;19.730;2022-08-01T02:18:26;24.90;69.20
38263;DHT22;24054;50.128;19.730;2022-08-01T02:20:53;24.60;69.00
38263;DHT22;24054;50.128;19.730;2022-08-01T02:23:21;24.60;69.00
38263;DHT22;24054;50.128;19.730;2022-08-01T02:25:49;24.60;69.00
38263;DHT22;24054;50.128;19.730;2022-08-01T02:28:17;24.60;69.00
38263;DHT22;24054;50.128;19.730;2022-08-01T02:30:48;24.60;69.00
38263;DHT22;24054;50.128;19.730;2022-08-01T02:33:18;24.60;69.00
38263;DHT22;24054;50.128;19.730;2022-08-01T02:35:48;24.60;69.00
38263;DHT22;24054;50.128;19.730;2022-08-01T02:38:16;24.60;68.90
38263;DHT22;24054;50.128;19.730;2022-08-01T02:40:45;24.60;69.60
38263;DHT22;24054;50.128;19.730;2022-08-01T02:43:15;24.60;69.00
38263;DHT22;24054;50.128;19.730;2022-08-01T02:45:45;24.60;69.00
38263;DHT22;24054;50.128;19.730;2022-08-01T02:48:13;24.70;69.10
38263;DHT22;24054;50.128;19.730;2022-08-01T02:50:42;24.60;69.00
38263;DHT22;24054;50.128;19.730;2022-08-01T02:53:10;24.60;69.00
38263;DHT22;24054;50.128;19.730;2022-08-01T02:55:38;24.60;69.10
38263;DHT22;24054;50.128;19.730;2022-08-01T02:58:06;24.60;69.00
38263;DHT22;24054;50.128;19.730;2022-08-01T03:00:33;24.60;69.00
38263;DHT22;24054;50.128;19.730;2022-08-01T03:03:00;24.60;69.00
38263;DHT22;24054;50.128;19.730;2022-08-01T03:05:27;24.60;69.00
38263;DHT22;24054;50.128;19.730;2022-08-01T03:07:55;24.60;69.10
38263;DHT22;24054;50.128;19.730;2022-08-01T03:10:24;25.60;69.70
38263;DHT22;24054;50.128;19.730;2022-08-01T03:12:53;24.60;69.00
38263;DHT22;24054;50.128;19.730;2022-08-01T03:15:20;24.60;69.60
38263;DHT22;24054;50.128;19.730;2022-08-01T03:17:47;24.60;69.00
38263;DHT22;24054;50.128;19.730;2022-08-01T03:20:16;24.60;69.00
38263;DHT22;24054;50.128;19.730;2022-08-01T03:22:44;24.60;69.00
38263;DHT22;24054;50.128;19.730;2022-08-01T03:25:12;24.60;69.10
38263;DHT22;24054;50.128;19.730;2022-08-01T03:27:41;24.60;69.00
38263;DHT22;24054;50.128;19.730;2022-08-01T03:30:08;24.60;69.00
38263;DHT22;24054;50.128;19.730;2022-08-01T03:32:35;24.60;69.10
38263;DHT22;24054;50.128;19.730;2022-08-01T03:35:02;24.60;69.10
38263;DHT22;24054;50.128;19.730;2022-08-01T03:37:31;24.60;69.10
38263;DHT22;24054;50.128;19.730;2022-08-01T03:40:02;24.60;69.10
38263;DHT22;24054;50.128;19.730;2022-08-01T03:42:32;24.60;69.10
38263;DHT22;24054;50.128;19.730;2022-08-01T03:45:01;24.60;69.20
38263;DHT22;24054;50.128;19.730;2022-08-01T03:47:29;24.60;69.10
38263;DHT22;24054;50.128;19.730;2022-08-01T03:49:57;24.60;69.10
38263;DHT22;24054;50.128;19.730;2022-08-01T03:52:24;24.60;69.20
38263;DHT22;24054;50.128;19.730;2022-08-01T03:54:52;24.60;69.20
38263;DHT22;24054;50.128;19.730;2022-08-01T03:57:20;24.60;69.20
38263;DHT22;24054;50.128;19.730;2022-08-01T03:59:47;24.60;69.20
38263;DHT22;24054;50.128;19.730;2022-08-01T04:02:16;24.60;69.10
38263;DHT22;24054;50.128;19.730;2022-08-01T04:04:43;24.60;69.20
38263;DHT22;24054;50.128;19.730;2022-08-01T04:07:21;24.60;69.20
38263;DHT22;24054;50.128;19.730;2022-08-01T04:09:47;24.60;69.20
38263;DHT22;24054;50.128;19.730;2022-08-01T04:12:14;24.60;69.20
38263;DHT22;24054;50.128;19.730;2022-08-01T04:14:41;25.20;69.50
38263;DHT22;24054;50.128;19.730;2022-08-01T04:17:08;24.60;69.20
38263;DHT22;24054;50.128;19.730;2022-08-01T04:19:36;24.60;69.20
38263;DHT22;24054;50.128;19.730;2022-08-01T04:22:04;24.60;69.20
38263;DHT22;24054;50.128;19.730;2022-08-01T04:24:30;24.60;69.20
38263;DHT22;24054;50.128;19.730;2022-08-01T04:26:59;24.60;69.20
38263;DHT22;24054;50.128;19.730;2022-08-01T04:29:26;24.60;69.20
38263;DHT22;24054;50.128;19.730;2022-08-01T04:31:54;24.60;69.10
38263;DHT22;24054;50.128;19.730;2022-08-01T04:34:22;24.60;69.20
38263;DHT22;24054;50.128;19.730;2022-08-01T04:36:52;24.60;69.20
38263;DHT22;24054;50.128;19.730;2022-08-01T04:39:20;24.50;69.20
38263;DHT22;24054;50.128;19.730;2022-08-01T04:41:52;24.60;69.20
38263;DHT22;24054;50.128;19.730;2022-08-01T04:44:21;24.50;69.20
38263;DHT22;24054;50.128;19.730;2022-08-01T04:46:48;24.50;69.20
38263;DHT22;24054;50.128;19.730;2022-08-01T04:49:16;24.60;69.20
38263;DHT22;24054;50.128;19.730;2022-08-01T04:51:49;24.60;69.20
38263;DHT22;24054;50.128;19.730;2022-08-01T04:54:18;24.50;69.10
38263;DHT22;24054;50.128;19.730;2022-08-01T04:56:46;24.50;69.10
38263;DHT22;24054;50.128;19.730;2022-08-01T04:59:13;22.20;67.90
38263;DHT22;24054;50.128;19.730;2022-08-01T05:02:00;24.50;69.10
38263;DHT22;24054;50.128;19.730;2022-08-01T05:04:27;24.50;69.10
38263;DHT22;24054;50.128;19.730;2022-08-01T05:06:54;24.50;69.10
38263;DHT22;24054;50.128;19.730;2022-08-01T05:09:22;24.50;69.10
38263;DHT22;24054;50.128;19.730;2022-08-01T05:11:49;24.50;69.10
38263;DHT22;24054;50.128;19.730;2022-08-01T05:14:15;24.50;69.10
38263;DHT22;24054;50.128;19.730;2022-08-01T05:16:42;24.50;69.10
38263;DHT22;24054;50.128;19.730;2022-08-01T05:19:09;24.50;69.10
38263;DHT22;24054;50.128;19.730;2022-08-01T05:21:36;24.60;69.10
38263;DHT22;24054;50.128;19.730;2022-08-01T05:24:03;24.50;69.10
38263;DHT22;24054;50.128;19.730;2022-08-01T05:26:31;24.60;69.10
38263;DHT22;24054;50.128;19.730;2022-08-01T05:28:58;24.50;69.70
38263;DHT22;24054;50.128;19.730;2022-08-01T05:31:25;24.60;69.10
38263;DHT22;24054;50.128;19.730;2022-08-01T05:33:51;24.50;69.10
38263;DHT22;24054;50.128;19.730;2022-08-01T05:36:19;24.50;69.10
38263;DHT22;24054;50.128;19.730;2022-08-01T05:38:45;24.50;69.10
38263;DHT22;24054;50.128;19.730;2022-08-01T05:41:12;24.50;69.10
38263;DHT22;24054;50.128;19.730;2022-08-01T05:43:40;24.60;69.10
38263;DHT22;24054;50.128;19.730;2022-08-01T05:46:07;24.50;69.10
38263;DHT22;24054;50.128;19.730;2022-08-01T05:48:34;24.60;69.10
38263;DHT22;24054;50.128;19.730;2022-08-01T05:51:01;24.50;69.10
38263;DHT22;24054;50.128;19.730;2022-08-01T05:53:28;24.50;69.10
38263;DHT22;24054;50.128;19.730;2022-08-01T05:55:55;24.40;69.00
38263;DHT22;24054;50.128;19.730;2022-08-01T05:58:22;24.50;69.00
38263;DHT22;24054;50.128;19.730;2022-08-01T06:00:50;24.50;69.00
38263;DHT22;24054;50.128;19.730;2022-08-01T06:03:16;24.50;69.10
38263;DHT22;24054;50.128;19.730;2022-08-01T06:05:43;24.50;69.10
38263;DHT22;24054;50.128;19.730;2022-08-01T06:08:10;24.50;69.00
38263;DHT22;24054;50.128;19.730;2022-08-01T06:10:37;24.50;68.60
38263;DHT22;24054;50.128;19.730;2022-08-01T06:13:04;24.50;69.10
38263;DHT22;24054;50.128;19.730;2022-08-01T06:15:31;24.50;69.00
38263;DHT22;24054;50.128;19.730;2022-08-01T06:17:59;24.50;69.10
38263;DHT22;24054;50.128;19.730;2022-08-01T06:20:26;24.50;69.10
38263;DHT22;24054;50.128;19.730;2022-08-01T06:22:53;24.50;69.10
38263;DHT22;24054;50.128;19.730;2022-08-01T06:25:20;24.50;69.10
38263;DHT22;24054;50.128;19.730;2022-08-01T06:27:47;24.50;69.10
38263;DHT22;24054;50.128;19.730;2022-08-01T06:30:13;24.60;69.20
38263;DHT22;24054;50.128;19.730;2022-08-01T06:32:40;24.50;69.30
38263;DHT22;24054;50.128;19.730;2022-08-01T06:35:09;24.30;69.30
38263;DHT22;24054;50.128;19.730;2022-08-01T06:37:35;24.50;69.50
38263;DHT22;24054;50.128;19.730;2022-08-01T06:40:02;24.50;69.60
38263;DHT22;24054;50.128;19.730;2022-08-01T06:42:29;24.60;69.70
38263;DHT22;24054;50.128;19.730;2022-08-01T06:45:00;24.50;69.60
38263;DHT22;24054;50.128;19.730;2022-08-01T06:47:27;24.50;69.70
38263;DHT22;24054;50.128;19.730;2022-08-01T06:49:54;24.50;69.90
38263;DHT22;24054;50.128;19.730;2022-08-01T06:52:22;24.50;69.90
38263;DHT22;24054;50.128;19.730;2022-08-01T06:54:49;24.60;70.00
38263;DHT22;24054;50.128;19.730;2022-08-01T06:57:16;24.60;70.10
38263;DHT22;24054;50.128;19.730;2022-08-01T06:59:43;24.60;70.10
38263;DHT22;24054;50.128;19.730;2022-08-01T07:02:10;24.60;70.00
38263;DHT22;24054;50.128;19.730;2022-08-01T07:04:40;24.60;70.00
38263;DHT22;24054;50.128;19.730;2022-08-01T07:07:08;24.60;70.20
38263;DHT22;24054;50.128;19.730;2022-08-01T07:09:37;24.70;70.40
38263;DHT22;24054;50.128;19.730;2022-08-01T07:12:07;24.70;70.60
38263;DHT22;24054;50.128;19.730;2022-08-01T07:14:34;24.70;70.60
38263;DHT22;24054;50.128;19.730;2022-08-01T07:17:01;24.70;70.70
38263;DHT22;24054;50.128;19.730;2022-08-01T07:19:28;24.80;70.90
38263;DHT22;24054;50.128;19.730;2022-08-01T07:21:56;24.80;71.50
38263;DHT22;24054;50.128;19.730;2022-08-01T07:24:23;24.80;70.90
38263;DHT22;24054;50.128;19.730;2022-08-01T07:26:51;24.80;71.10
38263;DHT22;24054;50.128;19.730;2022-08-01T07:29:19;24.80;71.10
38263;DHT22;24054;50.128;19.730;2022-08-01T07:31:46;24.90;71.30
38263;DHT22;24054;50.128;19.730;2022-08-01T07:34:13;24.90;71.30
38263;DHT22;24054;50.128;19.730;2022-08-01T07:36:40;24.90;71.30
38263;DHT22;24054;50.128;19.730;2022-08-01T07:39:07;22.90;70.30
38263;DHT22;24054;50.128;19.730;2022-08-01T07:41:34;24.90;71.60
38263;DHT22;24054;50.128;19.730;2022-08-01T07:44:02;24.90;71.60
38263;DHT22;24054;50.128;19.730;2022-08-01T07:46:30;25.00;71.60
38263;DHT22;24054;50.128;19.730;2022-08-01T07:48:58;25.00;71.70
38263;DHT22;24054;50.128;19.730;2022-08-01T07:51:26;25.10;71.60
38263;DHT22;24054;50.128;19.730;2022-08-01T07:53:53;25.10;71.80
38263;DHT22;24054;50.128;19.730;2022-08-01T07:56:21;25.10;71.70
38263;DHT22;24054;50.128;19.730;2022-08-01T07:58:50;25.10;71.80
38263;DHT22;24054;50.128;19.730;2022-08-01T08:01:19;25.10;71.80
38263;DHT22;24054;50.128;19.730;2022-08-01T08:03:47;25.10;71.80
38263;DHT22;24054;50.128;19.730;2022-08-01T08:06:14;25.10;71.70
38263;DHT22;24054;50.128;19.730;2022-08-01T08:08:41;25.10;71.70
38263;DHT22;24054;50.128;19.730;2022-08-01T08:11:09;25.20;71.70
38263;DHT22;24054;50.128;19.730;2022-08-01T08:13:36;25.20;71.90
38263;DHT22;24054;50.128;19.730;2022-08-01T08:16:03;25.20;71.90
38263;DHT22;24054;50.128;19.730;2022-08-01T08:18:32;25.30;72.00
38263;DHT22;24054;50.128;19.730;2022-08-01T08:20:59;25.30;72.10
38263;DHT22;24054;50.128;19.730;2022-08-01T08:23:25;25.30;72.20
38263;DHT22;24054;50.128;19.730;2022-08-01T08:26:10;25.30;72.10
38263;DHT22;24054;50.128;19.730;2022-08-01T08:28:37;25.30;72.10
38263;DHT22;24054;50.128;19.730;2022-08-01T08:31:06;25.30;71.60
38263;DHT22;24054;50.128;19.730;2022-08-01T08:33:34;25.30;71.20
38263;DHT22;24054;50.128;19.730;2022-08-01T08:36:01;25.30;70.90
38263;DHT22;24054;50.128;19.730;2022-08-01T08:38:28;25.30;70.80
38263;DHT22;24054;50.128;19.730;2022-08-01T08:40:55;25.40;70.70
38263;DHT22;24054;50.128;19.730;2022-08-01T08:43:22;25.30;70.60
38263;DHT22;24054;50.128;19.730;2022-08-01T08:45:49;25.50;70.70
38263;DHT22;24054;50.128;19.730;2022-08-01T08:48:16;25.30;70.70
38263;DHT22;24054;50.128;19.730;2022-08-01T08:50:47;25.30;70.70
38263;DHT22;24054;50.128;19.730;2022-08-01T08:53:15;25.30;70.60
38263;DHT22;24054;50.128;19.730;2022-08-01T08:55:42;25.30;70.50
38263;DHT22;24054;50.128;19.730;2022-08-01T08:58:09;25.30;70.50
38263;DHT22;24054;50.128;19.730;2022-08-01T09:00:37;25.30;70.40
38263;DHT22;24054;50.128;19.730;2022-08-01T09:03:05;25.30;70.30
38263;DHT22;24054;50.128;19.730;2022-08-01T09:05:32;25.30;70.30
38263;DHT22;24054;50.128;19.730;2022-08-01T09:08:00;25.30;70.20
38263;DHT22;24054;50.128;19.730;2022-08-01T09:10:27;25.30;70.20
38263;DHT22;24054;50.128;19.730;2022-08-01T09:13:07;25.30;70.10
38263;DHT22;24054;50.128;19.730;2022-08-01T09:15:40;25.40;70.10
38263;DHT22;24054;50.128;19.730;2022-08-01T09:18:07;25.30;70.00
38263;DHT22;24054;50.128;19.730;2022-08-01T09:20:34;25.30;70.00
38263;DHT22;24054;50.128;19.730;2022-08-01T09:23:03;25.30;70.00
38263;DHT22;24054;50.128;19.730;2022-08-01T09:25:30;25.40;70.10
38263;DHT22;24054;50.128;19.730;2022-08-01T09:28:03;25.40;70.10
38263;DHT22;24054;50.128;19.730;2022-08-01T09:30:36;25.40;69.80
38263;DHT22;24054;50.128;19.730;2022-08-01T09:33:04;25.40;69.90
38263;DHT22;24054;50.128;19.730;2022-08-01T09:35:31;25.40;69.80
38263;DHT22;24054;50.128;19.730;2022-08-01T09:38:14;25.30;69.30
38263;DHT22;24054;50.128;19.730;2022-08-01T09:40:45;25.30;68.70
38263;DHT22;24054;50.128;19.730;2022-08-01T09:43:12;24.60;67.70
38263;DHT22;24054;50.128;19.730;2022-08-01T09:45:39;25.30;67.80
38263;DHT22;24054;50.128;19.730;2022-08-01T09:48:06;25.30;67.60
38263;DHT22;24054;50.128;19.730;2022-08-01T09:50:38;25.30;67.50
38263;DHT22;24054;50.128;19.730;2022-08-01T09:53:06;25.30;67.50
38263;DHT22;24054;50.128;19.730;2022-08-01T09:55:34;25.30;67.50
38263;DHT22;24054;50.128;19.730;2022-08-01T09:58:01;25.30;67.40
38263;DHT22;24054;50.128;19.730;2022-08-01T10:00:30;25.30;67.40
38263;DHT22;24054;50.128;19.730;2022-08-01T10:02:56;25.30;67.50
38263;DHT22;24054;50.128;19.730;2022-08-01T10:05:30;25.30;67.60
38263;DHT22;24054;50.128;19.730;2022-08-01T10:07:58;25.30;67.60
38263;DHT22;24054;50.128;19.730;2022-08-01T10:10:28;25.30;67.70
38263;DHT22;24054;50.128;19.730;2022-08-01T10:12:57;25.50;67.60
38263;DHT22;24054;50.128;19.730;2022-08-01T10:15:24;25.30;67.20
38263;DHT22;24054;50.128;19.730;2022-08-01T10:17:53;25.30;67.10
38263;DHT22;24054;50.128;19.730;2022-08-01T10:20:20;25.30;67.70
38263;DHT22;24054;50.128;19.730;2022-08-01T10:22:47;25.40;67.20
38263;DHT22;24054;50.128;19.730;2022-08-01T10:25:15;25.30;67.20
38263;DHT22;24054;50.128;19.730;2022-08-01T10:27:44;25.30;67.20
38263;DHT22;24054;50.128;19.730;2022-08-01T10:30:13;25.40;67.40
38263;DHT22;24054;50.128;19.730;2022-08-01T10:32:41;25.40;67.70
38263;DHT22;24054;50.128;19.730;2022-08-01T10:35:08;26.50;68.40
38263;DHT22;24054;50.128;19.730;2022-08-01T10:37:40;25.40;67.60
38263;DHT22;24054;50.128;19.730;2022-08-01T10:40:07;25.40;68.10
38263;DHT22;24054;50.128;19.730;2022-08-01T10:42:35;25.40;68.30
38263;DHT22;24054;50.128;19.730;2022-08-01T10:45:02;25.40;68.40
38263;DHT22;24054;50.128;19.730;2022-08-01T10:47:33;25.50;68.50
38263;DHT22;24054;50.128;19.730;2022-08-01T10:50:07;25.50;68.50
38263;DHT22;24054;50.128;19.730;2022-08-01T10:52:38;25.50;68.70
38263;DHT22;24054;50.128;19.730;2022-08-01T10:55:05;25.50;68.80
38263;DHT22;24054;50.128;19.730;2022-08-01T10:57:43;25.60;69.10
38263;DHT22;24054;50.128;19.730;2022-08-01T11:00:15;25.60;69.10
38263;DHT22;24054;50.128;19.730;2022-08-01T11:02:57;25.60;69.30
38263;DHT22;24054;50.128;19.730;2022-08-01T11:05:26;25.60;69.30
38263;DHT22;24054;50.128;19.730;2022-08-01T11:07:54;25.60;69.40
38263;DHT22;24054;50.128;19.730;2022-08-01T11:10:22;25.60;69.20
38263;DHT22;24054;50.128;19.730;2022-08-01T11:12:51;25.70;68.30
38263;DHT22;24054;50.128;19.730;2022-08-01T11:15:24;25.60;68.40
38263;DHT22;24054;50.128;19.730;2022-08-01T11:17:53;25.70;69.00
38263;DHT22;24054;50.128;19.730;2022-08-01T11:20:20;25.70;68.70
38263;DHT22;24054;50.128;19.730;2022-08-01T11:28:18;25.70;69.40
38263;DHT22;24054;50.128;19.730;2022-08-01T11:30:46;25.70;69.40
38263;DHT22;24054;50.128;19.730;2022-08-01T11:33:15;25.60;69.40
38263;DHT22;24054;50.128;19.730;2022-08-01T11:38:24;25.70;69.60
38263;DHT22;24054;50.128;19.730;2022-08-01T11:43:34;25.70;69.90
38263;DHT22;24054;50.128;19.730;2022-08-01T11:46:01;25.60;69.60
38263;DHT22;24054;50.128;19.730;2022-08-01T11:48:29;25.60;71.40
38263;DHT22;24054;50.128;19.730;2022-08-01T11:50:56;25.70;70.20
38263;DHT22;24054;50.128;19.730;2022-08-01T11:53:23;25.70;70.30
38263;DHT22;24054;50.128;19.730;2022-08-01T11:55:51;25.60;70.30
38263;DHT22;24054;50.128;19.730;2022-08-01T11:58:20;25.70;70.40
38263;DHT22;24054;50.128;19.730;2022-08-01T12:00:50;25.70;70.60
38263;DHT22;24054;50.128;19.730;2022-08-01T12:03:22;25.70;70.70
38263;DHT22;24054;50.128;19.730;2022-08-01T12:05:50;25.70;70.80
38263;DHT22;24054;50.128;19.730;2022-08-01T12:08:23;25.70;70.50
38263;DHT22;24054;50.128;19.730;2022-08-01T12:10:50;25.70;69.30
38263;DHT22;24054;50.128;19.730;2022-08-01T12:13:17;25.70;68.10
38263;DHT22;24054;50.128;19.730;2022-08-01T12:15:45;25.70;68.30
38263;DHT22;24054;50.128;19.730;2022-08-01T12:18:12;25.60;69.30
38263;DHT22;24054;50.128;19.730;2022-08-01T12:20:41;25.70;66.80
38263;DHT22;24054;50.128;19.730;2022-08-01T12:23:11;25.70;66.60
38263;DHT22;24054;50.128;19.730;2022-08-01T12:25:38;25.70;66.60
38263;DHT22;24054;50.128;19.730;2022-08-01T12:28:06;25.60;61.40
38263;DHT22;24054;50.128;19.730;2022-08-01T12:30:34;25.50;58.60
38263;DHT22;24054;50.128;19.730;2022-08-01T12:33:02;25.40;59.40
38263;DHT22;24054;50.128;19.730;2022-08-01T12:35:29;25.30;60.60
38263;DHT22;24054;50.128;19.730;2022-08-01T12:37:56;25.30;61.60
38263;DHT22;24054;50.128;19.730;2022-08-01T12:40:25;25.30;61.50
38263;DHT22;24054;50.128;19.730;2022-08-01T12:42:53;24.70;61.20
38263;DHT22;24054;50.128;19.730;2022-08-01T12:45:22;25.20;62.20
38263;DHT22;24054;50.128;19.730;2022-08-01T12:47:50;25.20;61.60
38263;DHT22;24054;50.128;19.730;2022-08-01T12:50:18;25.30;61.80
38263;DHT22;24054;50.128;19.730;2022-08-01T12:52:45;25.30;61.90
38263;DHT22;24054;50.128;19.730;2022-08-01T12:55:13;25.30;62.20
38263;DHT22;24054;50.128;19.730;2022-08-01T12:57:43;25.30;62.20
38263;DHT22;24054;50.128;19.730;2022-08-01T13:00:12;25.30;61.90
38263;DHT22;24054;50.128;19.730;2022-08-01T13:02:40;25.30;61.90
38263;DHT22;24054;50.128;19.730;2022-08-01T13:05:08;25.30;61.80
38263;DHT22;24054;50.128;19.730;2022-08-01T13:07:36;25.40;61.60
38263;DHT22;24054;50.128;19.730;2022-08-01T13:10:03;25.40;61.80
38263;DHT22;24054;50.128;19.730;2022-08-01T13:12:31;25.40;61.60
38263;DHT22;24054;50.128;19.730;2022-08-01T13:14:59;25.40;61.20
38263;DHT22;24054;50.128;19.730;2022-08-01T13:17:29;25.40;61.10
38263;DHT22;24054;50.128;19.730;2022-08-01T13:19:56;25.40;60.80
38263;DHT22;24054;50.128;19.730;2022-08-01T13:22:31;25.40;60.90
38263;DHT22;24054;50.128;19.730;2022-08-01T13:25:08;25.40;61.00
38263;DHT22;24054;50.128;19.730;2022-08-01T13:27:35;25.50;61.20
38263;DHT22;24054;50.128;19.730;2022-08-01T13:30:11;25.50;61.30
38263;DHT22;24054;50.128;19.730;2022-08-01T13:32:38;25.50;61.50
38263;DHT22;24054;50.128;19.730;2022-08-01T13:35:06;25.50;61.20
38263;DHT22;24054;50.128;19.730;2022-08-01T13:37:34;25.60;60.80
38263;DHT22;24054;50.128;19.730;2022-08-01T13:40:01;25.60;60.60
38263;DHT22;24054;50.128;19.730;2022-08-01T13:42:28;25.80;60.70
38263;DHT22;24054;50.128;19.730;2022-08-01T13:44:55;25.60;60.40
38263;DHT22;24054;50.128;19.730;2022-08-01T13:47:24;25.60;60.20
38263;DHT22;24054;50.128;19.730;2022-08-01T13:49:51;25.70;60.10
38263;DHT22;24054;50.128;19.730;2022-08-01T13:52:18;25.70;59.90
38263;DHT22;24054;50.128;19.730;2022-08-01T13:54:46;25.70;59.90
38263;DHT22;24054;50.128;19.730;2022-08-01T13:57:12;25.70;59.90
38263;DHT22;24054;50.128;19.730;2022-08-01T13:59:41;25.70;59.80
38263;DHT22;24054;50.128;19.730;2022-08-01T14:02:08;25.70;59.80
38263;DHT22;24054;50.128;19.730;2022-08-01T14:04:36;25.70;59.60
38263;DHT22;24054;50.128;19.730;2022-08-01T14:07:03;25.70;59.60
38263;DHT22;24054;50.128;19.730;2022-08-01T14:09:30;25.80;59.70
38263;DHT22;24054;50.128;19.730;2022-08-01T14:12:01;25.70;59.30
38263;DHT22;24054;50.128;19.730;2022-08-01T14:14:29;25.80;59.30
38263;DHT22;24054;50.128;19.730;2022-08-01T14:16:56;25.80;59.50
38263;DHT22;24054;50.128;19.730;2022-08-01T14:19:23;25.80;59.40
38263;DHT22;24054;50.128;19.730;2022-08-01T14:21:51;26.80;60.10
38263;DHT22;24054;50.128;19.730;2022-08-01T14:24:18;25.80;59.50
38263;DHT22;24054;50.128;19.730;2022-08-01T14:26:45;25.80;59.30
38263;DHT22;24054;50.128;19.730;2022-08-01T14:29:12;25.80;58.80
38263;DHT22;24054;50.128;19.730;2022-08-01T14:31:39;25.80;59.10
38263;DHT22;24054;50.128;19.730;2022-08-01T14:34:06;25.80;59.10
38263;DHT22;24054;50.128;19.730;2022-08-01T14:36:32;25.90;59.10
38263;DHT22;24054;50.128;19.730;2022-08-01T14:39:00;25.80;58.80
38263;DHT22;24054;50.128;19.730;2022-08-01T14:41:27;25.80;59.10
38263;DHT22;24054;50.128;19.730;2022-08-01T14:43:54;25.90;59.00
38263;DHT22;24054;50.128;19.730;2022-08-01T14:46:21;25.90;59.20
38263;DHT22;24054;50.128;19.730;2022-08-01T14:48:48;25.90;59.30
38263;DHT22;24054;50.128;19.730;2022-08-01T14:51:16;25.90;59.30
38263;DHT22;24054;50.128;19.730;2022-08-01T14:53:43;25.90;59.30
38263;DHT22;24054;50.128;19.730;2022-08-01T14:56:11;25.80;58.80
38263;DHT22;24054;50.128;19.730;2022-08-01T14:58:38;25.80;58.80
38263;DHT22;24054;50.128;19.730;2022-08-01T15:01:06;25.80;58.90
38263;DHT22;24054;50.128;19.730;2022-08-01T15:03:33;25.70;59.10
38263;DHT22;24054;50.128;19.730;2022-08-01T15:06:00;25.70;59.10
38263;DHT22;24054;50.128;19.730;2022-08-01T15:08:27;25.70;59.20
38263;DHT22;24054;50.128;19.730;2022-08-01T15:10:55;25.70;59.40
38263;DHT22;24054;50.128;19.730;2022-08-01T15:13:23;25.70;59.50
38263;DHT22;24054;50.128;19.730;2022-08-01T15:15:50;25.70;59.50
38263;DHT22;24054;50.128;19.730;2022-08-01T15:18:17;25.60;59.50
38263;DHT22;24054;50.128;19.730;2022-08-01T15:20:44;25.60;59.60
38263;DHT22;24054;50.128;19.730;2022-08-01T15:23:11;25.60;59.60
38263;DHT22;24054;50.128;19.730;2022-08-01T15:25:38;25.60;59.60
38263;DHT22;24054;50.128;19.730;2022-08-01T15:28:05;25.60;60.20
38263;DHT22;24054;50.128;19.730;2022-08-01T15:30:35;25.60;59.60
38263;DHT22;24054;50.128;19.730;2022-08-01T15:33:01;25.60;59.70